North Lawrence, OH (44666)

8:02 AM EDT on September 04, 2015 (GMT -0400)
KC8WVG | | Change Station
CLOSE
Current Station
Personal Weather Station
Location: Massillon, OH
Elevation: 1020 ft
Nearby Weather Stations

Elev 1020 ft 40.81 °N, 81.52 °W | Updated 14 minutes ago

Thunderstorm
Thunderstorm
66.9 °F
Feels Like 66.9 °F
N
0.0
Wind Variable Wind from NNE

Today
High -- | Low -- °F
--% Chance of Precip.
Yesterday
High -- | Low -- °F
Precip. -- in
6:56 AM 7:54 PM
Waning Gibbous, 60% visible
Pressure 30.05 in
Visibility 5.0 miles
Clouds Few 6000 ft
Overcast 12000 ft
Dew Point 66 °F
Humidity 96%
Rainfall 0.00 in
Snow Depth Not available.
UV 0 out of 12
Pollen 9.20 out of 12
Air Quality Not available.
Flu Activity Not available.
METAR KCAK 041151Z 23005KT 5SM BR FEW060 OVC120 20/18 A3007 RMK AO2 RAE31 SLP175 P0000 60001 70020 T02000183 10200 20194 53010
Pressure 30.05 in
Visibility 5.0 miles
Clouds Few 6000 ft
Overcast 12000 ft
Dew Point 66 °F
Humidity 96%
Rainfall 0.00 in
Snow Depth Not available.
UV 0 out of 12
Pollen 9.20 out of 12
Air Quality Not available.
Flu Activity Not available.
METAR KCAK 041151Z 23005KT 5SM BR FEW060 OVC120 20/18 A3007 RMK AO2 RAE31 SLP175 P0000 60001 70020 T02000183 10200 20194 53010

10-Day Weather Forecast

×

Almanac

Astronomy

Sep. 04, 2015 Rise Set
Actual Time
Civil Twilight
Nautical Twilight
Astronomical Twilight
Moon
Length of Visible Light
Length of Day
Tomorrow will be .
, % of the Moon is Illuminated

Today's Extremes

State Highs State Lows

Community

WunderPhotos

Upload Photos

1,852,161 photos uploaded!

WunderBlogs® & News

Nearby

Air Quality

  Air Quality AQ Index Pollutant
Not available.

Snow Depth

Station Depth Elevation

Earthquake Activity

City Distance Mag. Time & Date
Minimum magnitude displayed is 2.5.

Coastal Water Temperatures

Place Temperature

Stations

Nearby Weather Stations

Station Location Temp. Windchill Dew Point Humidity Wind Precip. Elev Updated Type